< < Back
Terminal Aerodrome Forecast


Current Version              Previous Versions:   1  2  3  4  5  6  7  8  9  

Terminal Aerodrome Forecast

736
FTUS42 KFFC 311735
TAFFTY
TAF
KFTY 311735Z 3118/0118 06010KT P6SM SCT050
     FM010200 06006KT P6SM SCT120 SCT250
     FM011400 26004KT P6SM SCT030 SCT120
     FM011700 36004KT P6SM SCT040=



Latest METAR

089
SAUS70 KWBC 010300 RRU
MTRFTY
METAR KFTY 010253Z 00000KT 10SM CLR 24/21 A2993 RMK AO2 SLP125 T02390206
53013


USA.gov is the U.S. government's official web portal to all federal, state and local government web resources and services.